PWSweather.com
Personal Weather Stations
Station Observations
DEEPSOUTH
Waverley, InvercargillNZ 9810

WaverleyInvercargillNZ 9810

Lat: -46.3926834, Lon: 168.381112

Elevation: 72

Station Type: Davis VP2

http://www.deepsouthweather.co.nz/

Latest ConditionsUpdated 10:20:02 AM GMT+11:11 Friday, Oct 31, 2014
Currently Today's Max Today's Min Today's Average
Temperature 52.5°F11.4°C 56.8°F13.8°C 48.4°F9.1°C 50.5°F10.3°C
Dew Point 44.1°F6.7°C 45.8°F7.7°C 41.2°F5.1°C 43.3°F6.3°C
Winds 13.0 mph W20.9 kmh W 14.0 mph W22.5 kmh W - 7.9 mph 12.7 kmh
Wind Gusts 32.0 mph51.5 kmh 34.0 mph54.7 kmh - -
Humidity 73% 87% 59% 77%
Pressure 29.62 in1003.0 mb 29.62 in1003.0 mb 29.52 in999.7 mb -
Precipitation - 0.01 in0.3 mm - -
Hour Temp Dew Point Humidity Winds Wind Gusts Pressure Precip Precip Rate Daily Precip Total
10:20 AM 52.5°F11.4°C 44.1°F6.7°C 73% 13.0 mph W20.9 kmh W 32.0 mph51.5 kmh 29.62 in1003.0 mb 0.01 in0.3 mm 0.06 in/hr1.5 mm/hr 0.01 in0.3 mm
10:10 AM 55.2°F12.9°C 42.4°F5.8°C 62% 11.0 mph W17.7 kmh W 23.0 mph37.0 kmh 29.61 in1002.7 mb 0.00 in0.0 mm 0.00 in/hr0.0 mm/hr 0.00 in0.0 mm
10:00 AM 56.8°F13.8°C 43.5°F6.4°C 61% 11.0 mph W17.7 kmh W 27.0 mph43.5 kmh 29.60 in1002.4 mb 0.00 in0.0 mm 0.00 in/hr0.0 mm/hr 0.00 in0.0 mm
09:50 AM 56.1°F13.4°C 43.7°F6.5°C 63% 13.0 mph W20.9 kmh W 34.0 mph54.7 kmh 29.59 in1002.0 mb 0.00 in0.0 mm 0.00 in/hr0.0 mm/hr 0.00 in0.0 mm
09:40 AM 56.7°F13.7°C 42.5°F5.8°C 59% 13.0 mph W20.9 kmh W 25.0 mph40.2 kmh 29.59 in1002.0 mb 0.00 in0.0 mm 0.00 in/hr0.0 mm/hr 0.00 in0.0 mm
09:30 AM 55.9°F13.3°C 42.2°F5.7°C 60% 14.0 mph W22.5 kmh W 28.0 mph45.1 kmh 29.59 in1002.0 mb 0.00 in0.0 mm 0.00 in/hr0.0 mm/hr 0.00 in0.0 mm
09:20 AM 55.9°F13.3°C 43.1°F6.2°C 62% 12.0 mph WNW19.3 kmh WNW 22.0 mph35.4 kmh 29.60 in1002.4 mb 0.00 in0.0 mm 0.00 in/hr0.0 mm/hr 0.00 in0.0 mm
09:10 AM 55.6°F13.1°C 43.6°F6.4°C 64% 12.0 mph W19.3 kmh W 30.0 mph48.3 kmh 29.60 in1002.4 mb 0.00 in0.0 mm 0.00 in/hr0.0 mm/hr 0.00 in0.0 mm
09:00 AM 54.7°F12.6°C 43.1°F6.2°C 65% 11.0 mph W17.7 kmh W 29.0 mph46.7 kmh 29.59 in1002.0 mb 0.00 in0.0 mm 0.00 in/hr0.0 mm/hr 0.00 in0.0 mm
08:50 AM 55.0°F12.8°C 44.3°F6.8°C 67% 9.0 mph W14.5 kmh W 19.0 mph30.6 kmh 29.59 in1002.0 mb 0.00 in0.0 mm 0.00 in/hr0.0 mm/hr 0.00 in0.0 mm
08:40 AM 54.5°F12.5°C 44.2°F6.8°C 68% 10.0 mph WNW16.1 kmh WNW 20.0 mph32.2 kmh 29.59 in1002.0 mb 0.00 in0.0 mm 0.00 in/hr0.0 mm/hr 0.00 in0.0 mm
08:30 AM 53.2°F11.8°C 43.7°F6.5°C 70% 10.0 mph WNW16.1 kmh WNW 22.0 mph35.4 kmh 29.59 in1002.0 mb 0.00 in0.0 mm 0.00 in/hr0.0 mm/hr 0.00 in0.0 mm
08:20 AM 52.0°F11.1°C 42.9°F6.1°C 71% 9.0 mph WNW14.5 kmh WNW 21.0 mph33.8 kmh 29.59 in1002.0 mb 0.00 in0.0 mm 0.00 in/hr0.0 mm/hr 0.00 in0.0 mm
08:10 AM 50.9°F10.5°C 42.6°F5.9°C 73% 9.0 mph W14.5 kmh W 23.0 mph37.0 kmh 29.59 in1002.0 mb 0.00 in0.0 mm 0.00 in/hr0.0 mm/hr 0.00 in0.0 mm
08:00 AM 49.3°F9.6°C 42.4°F5.8°C 77% 7.0 mph W11.3 kmh W 15.0 mph24.1 kmh 29.59 in1002.0 mb 0.00 in0.0 mm 0.00 in/hr0.0 mm/hr 0.00 in0.0 mm
07:50 AM 48.9°F9.4°C 42.4°F5.8°C 78% 8.0 mph W12.9 kmh W 21.0 mph33.8 kmh 29.59 in1002.0 mb 0.00 in0.0 mm 0.00 in/hr0.0 mm/hr 0.00 in0.0 mm
07:40 AM 48.9°F9.4°C 42.7°F5.9°C 79% 10.0 mph WSW16.1 kmh WSW 21.0 mph33.8 kmh 29.59 in1002.0 mb 0.00 in0.0 mm 0.00 in/hr0.0 mm/hr 0.00 in0.0 mm
07:30 AM 49.1°F9.5°C 41.9°F5.5°C 76% 10.0 mph WSW16.1 kmh WSW 21.0 mph33.8 kmh 29.60 in1002.4 mb 0.00 in0.0 mm 0.00 in/hr0.0 mm/hr 0.00 in0.0 mm
07:20 AM 50.0°F10.0°C 42.4°F5.8°C 75% 9.0 mph WSW14.5 kmh WSW 20.0 mph32.2 kmh 29.59 in1002.0 mb 0.00 in0.0 mm 0.00 in/hr0.0 mm/hr 0.00 in0.0 mm
07:10 AM 51.3°F10.7°C 42.2°F5.7°C 71% 9.0 mph W14.5 kmh W 20.0 mph32.2 kmh 29.59 in1002.0 mb 0.00 in0.0 mm 0.00 in/hr0.0 mm/hr 0.00 in0.0 mm
07:00 AM 50.7°F10.4°C 42.4°F5.8°C 73% 8.0 mph W12.9 kmh W 17.0 mph27.4 kmh 29.58 in1001.7 mb 0.00 in0.0 mm 0.00 in/hr0.0 mm/hr 0.00 in0.0 mm
06:50 AM 50.2°F10.1°C 42.9°F6.1°C 76% 7.0 mph W11.3 kmh W 16.0 mph25.7 kmh 29.58 in1001.7 mb 0.00 in0.0 mm 0.00 in/hr0.0 mm/hr 0.00 in0.0 mm
06:40 AM 49.6°F9.8°C 41.7°F5.4°C 74% 7.0 mph W11.3 kmh W 18.0 mph29.0 kmh 29.57 in1001.4 mb 0.00 in0.0 mm 0.00 in/hr0.0 mm/hr 0.00 in0.0 mm
06:30 AM 49.5°F9.7°C 41.5°F5.3°C 74% 6.0 mph WSW9.7 kmh WSW 17.0 mph27.4 kmh 29.57 in1001.4 mb 0.00 in0.0 mm 0.00 in/hr0.0 mm/hr 0.00 in0.0 mm
06:20 AM 49.3°F9.6°C 41.7°F5.4°C 75% 6.0 mph W9.7 kmh W 13.0 mph20.9 kmh 29.57 in1001.4 mb 0.00 in0.0 mm 0.00 in/hr0.0 mm/hr 0.00 in0.0 mm
06:10 AM 49.3°F9.6°C 42.0°F5.6°C 76% 4.0 mph WNW6.4 kmh WNW 9.0 mph14.5 kmh 29.56 in1001.0 mb 0.00 in0.0 mm 0.00 in/hr0.0 mm/hr 0.00 in0.0 mm
06:00 AM 49.3°F9.6°C 42.0°F5.6°C 76% 5.0 mph W8.0 kmh W 12.0 mph19.3 kmh 29.55 in1000.7 mb 0.00 in0.0 mm 0.00 in/hr0.0 mm/hr 0.00 in0.0 mm
05:50 AM 49.3°F9.6°C 42.0°F5.6°C 76% 7.0 mph W11.3 kmh W 12.0 mph19.3 kmh 29.55 in1000.7 mb 0.00 in0.0 mm 0.00 in/hr0.0 mm/hr 0.00 in0.0 mm
05:40 AM 49.1°F9.5°C 41.9°F5.5°C 76% 7.0 mph W11.3 kmh W 15.0 mph24.1 kmh 29.55 in1000.7 mb 0.00 in0.0 mm 0.00 in/hr0.0 mm/hr 0.00 in0.0 mm
05:30 AM 48.7°F9.3°C 41.5°F5.3°C 76% 8.0 mph WSW12.9 kmh WSW 21.0 mph33.8 kmh 29.56 in1001.0 mb 0.00 in0.0 mm 0.00 in/hr0.0 mm/hr 0.00 in0.0 mm
05:20 AM 48.4°F9.1°C 41.2°F5.1°C 76% 5.0 mph W8.0 kmh W 14.0 mph22.5 kmh 29.55 in1000.7 mb 0.00 in0.0 mm 0.00 in/hr0.0 mm/hr 0.00 in0.0 mm
05:10 AM 48.4°F9.1°C 41.2°F5.1°C 76% 5.0 mph W8.0 kmh W 9.0 mph14.5 kmh 29.55 in1000.7 mb 0.00 in0.0 mm 0.00 in/hr0.0 mm/hr 0.00 in0.0 mm
05:00 AM 48.6°F9.2°C 41.3°F5.2°C 76% 3.0 mph W4.8 kmh W 8.0 mph12.9 kmh 29.54 in1000.3 mb 0.00 in0.0 mm 0.00 in/hr0.0 mm/hr 0.00 in0.0 mm
04:50 AM 48.7°F9.3°C 41.5°F5.3°C 76% 5.0 mph W8.0 kmh W 11.0 mph17.7 kmh 29.54 in1000.3 mb 0.00 in0.0 mm 0.00 in/hr0.0 mm/hr 0.00 in0.0 mm
04:40 AM 49.3°F9.6°C 42.0°F5.6°C 76% 6.0 mph W9.7 kmh W 18.0 mph29.0 kmh 29.54 in1000.3 mb 0.00 in0.0 mm 0.00 in/hr0.0 mm/hr 0.00 in0.0 mm
04:30 AM 49.3°F9.6°C 42.0°F5.6°C 76% 7.0 mph WSW11.3 kmh WSW 14.0 mph22.5 kmh 29.54 in1000.3 mb 0.00 in0.0 mm 0.00 in/hr0.0 mm/hr 0.00 in0.0 mm
04:20 AM 49.5°F9.7°C 41.9°F5.5°C 75% 8.0 mph W12.9 kmh W 15.0 mph24.1 kmh 29.53 in1000.0 mb 0.00 in0.0 mm 0.00 in/hr0.0 mm/hr 0.00 in0.0 mm
04:10 AM 49.5°F9.7°C 41.5°F5.3°C 74% 9.0 mph WSW14.5 kmh WSW 21.0 mph33.8 kmh 29.53 in1000.0 mb 0.00 in0.0 mm 0.00 in/hr0.0 mm/hr 0.00 in0.0 mm
04:00 AM 49.5°F9.7°C 42.2°F5.7°C 76% 8.0 mph WSW12.9 kmh WSW 18.0 mph29.0 kmh 29.53 in1000.0 mb 0.00 in0.0 mm 0.00 in/hr0.0 mm/hr 0.00 in0.0 mm
03:50 AM 49.5°F9.7°C 42.2°F5.7°C 76% 8.0 mph WSW12.9 kmh WSW 16.0 mph25.7 kmh 29.53 in1000.0 mb 0.00 in0.0 mm 0.00 in/hr0.0 mm/hr 0.00 in0.0 mm
03:40 AM 49.6°F9.8°C 43.1°F6.2°C 78% 9.0 mph WSW14.5 kmh WSW 17.0 mph27.4 kmh 29.53 in1000.0 mb 0.00 in0.0 mm 0.00 in/hr0.0 mm/hr 0.00 in0.0 mm
03:30 AM 49.8°F9.9°C 44.5°F6.9°C 82% 8.0 mph WSW12.9 kmh WSW 17.0 mph27.4 kmh 29.53 in1000.0 mb 0.00 in0.0 mm 0.00 in/hr0.0 mm/hr 0.00 in0.0 mm
03:20 AM 49.8°F9.9°C 44.9°F7.2°C 83% 8.0 mph WSW12.9 kmh WSW 19.0 mph30.6 kmh 29.53 in1000.0 mb 0.00 in0.0 mm 0.00 in/hr0.0 mm/hr 0.00 in0.0 mm
03:10 AM 49.5°F9.7°C 45.1°F7.3°C 85% 8.0 mph WSW12.9 kmh WSW 18.0 mph29.0 kmh 29.53 in1000.0 mb 0.00 in0.0 mm 0.00 in/hr0.0 mm/hr 0.00 in0.0 mm
03:00 AM 48.9°F9.4°C 44.3°F6.8°C 84% 6.0 mph WSW9.7 kmh WSW 12.0 mph19.3 kmh 29.52 in999.7 mb 0.00 in0.0 mm 0.00 in/hr0.0 mm/hr 0.00 in0.0 mm
02:50 AM 48.6°F9.2°C 44.3°F6.8°C 85% 4.0 mph SW6.4 kmh SW 7.0 mph11.3 kmh 29.53 in1000.0 mb 0.00 in0.0 mm 0.00 in/hr0.0 mm/hr 0.00 in0.0 mm
02:40 AM 48.4°F9.1°C 44.4°F6.9°C 86% 5.0 mph WSW8.0 kmh WSW 13.0 mph20.9 kmh 29.53 in1000.0 mb 0.00 in0.0 mm 0.00 in/hr0.0 mm/hr 0.00 in0.0 mm
02:30 AM 48.4°F9.1°C 44.4°F6.9°C 86% 5.0 mph SW8.0 kmh SW 13.0 mph20.9 kmh 29.53 in1000.0 mb 0.00 in0.0 mm 0.00 in/hr0.0 mm/hr 0.00 in0.0 mm
02:20 AM 48.4°F9.1°C 44.4°F6.9°C 86% 8.0 mph SW12.9 kmh SW 20.0 mph32.2 kmh 29.53 in1000.0 mb 0.00 in0.0 mm 0.00 in/hr0.0 mm/hr 0.00 in0.0 mm
02:10 AM 48.4°F9.1°C 44.7°F7.1°C 87% 7.0 mph SW11.3 kmh SW 14.0 mph22.5 kmh 29.53 in1000.0 mb 0.00 in0.0 mm 0.00 in/hr0.0 mm/hr 0.00 in0.0 mm
02:00 AM 48.6°F9.2°C 44.9°F7.2°C 87% 7.0 mph SW11.3 kmh SW 18.0 mph29.0 kmh 29.53 in1000.0 mb 0.00 in0.0 mm 0.00 in/hr0.0 mm/hr 0.00 in0.0 mm
01:50 AM 48.9°F9.4°C 44.9°F7.2°C 86% 6.0 mph SW9.7 kmh SW 14.0 mph22.5 kmh 29.53 in1000.0 mb 0.00 in0.0 mm 0.00 in/hr0.0 mm/hr 0.00 in0.0 mm
01:40 AM 49.3°F9.6°C 45.0°F7.2°C 85% 6.0 mph SW9.7 kmh SW 20.0 mph32.2 kmh 29.54 in1000.3 mb 0.00 in0.0 mm 0.00 in/hr0.0 mm/hr 0.00 in0.0 mm
01:30 AM 49.8°F9.9°C 45.2°F7.3°C 84% 7.0 mph SW11.3 kmh SW 17.0 mph27.4 kmh 29.53 in1000.0 mb 0.00 in0.0 mm 0.00 in/hr0.0 mm/hr 0.00 in0.0 mm
01:20 AM 50.5°F10.3°C 45.2°F7.3°C 82% 10.0 mph WSW16.1 kmh WSW 22.0 mph35.4 kmh 29.54 in1000.3 mb 0.00 in0.0 mm 0.00 in/hr0.0 mm/hr 0.00 in0.0 mm
01:10 AM 50.4°F10.2°C 44.7°F7.1°C 81% 7.0 mph WSW11.3 kmh WSW 14.0 mph22.5 kmh 29.53 in1000.0 mb 0.00 in0.0 mm 0.00 in/hr0.0 mm/hr 0.00 in0.0 mm
01:00 AM 50.4°F10.2°C 45.4°F7.4°C 83% 8.0 mph WSW12.9 kmh WSW 19.0 mph30.6 kmh 29.53 in1000.0 mb 0.00 in0.0 mm 0.00 in/hr0.0 mm/hr 0.00 in0.0 mm
12:50 AM 50.2°F10.1°C 45.8°F7.7°C 85% 8.0 mph WSW12.9 kmh WSW 18.0 mph29.0 kmh 29.53 in1000.0 mb 0.00 in0.0 mm 0.00 in/hr0.0 mm/hr 0.00 in0.0 mm
12:40 AM 49.8°F9.9°C 45.8°F7.7°C 86% 8.0 mph WSW12.9 kmh WSW 19.0 mph30.6 kmh 29.53 in1000.0 mb 0.00 in0.0 mm 0.00 in/hr0.0 mm/hr 0.00 in0.0 mm
12:30 AM 49.5°F9.7°C 45.4°F7.4°C 86% 7.0 mph WSW11.3 kmh WSW 17.0 mph27.4 kmh 29.53 in1000.0 mb 0.00 in0.0 mm 0.00 in/hr0.0 mm/hr 0.00 in0.0 mm
12:20 AM 48.9°F9.4°C 45.2°F7.3°C 87% 5.0 mph WSW8.0 kmh WSW 14.0 mph22.5 kmh 29.54 in1000.3 mb 0.00 in0.0 mm 0.00 in/hr0.0 mm/hr 0.00 in0.0 mm
12:10 AM 49.1°F9.5°C 45.1°F7.3°C 86% 5.0 mph WSW8.0 kmh WSW 13.0 mph20.9 kmh 29.54 in1000.3 mb 0.00 in0.0 mm 0.00 in/hr0.0 mm/hr 0.00 in0.0 mm
12:00 AM 49.3°F9.6°C 45.3°F7.4°C 86% 6.0 mph SW9.7 kmh SW 13.0 mph20.9 kmh 29.54 in1000.3 mb 0.00 in0.0 mm 0.00 in/hr0.0 mm/hr 0.00 in0.0 mm